TimeCDT,TemperatureF,Dew PointF,Humidity,Sea Level PressureIn,VisibilityMPH,Wind Direction,Wind SpeedMPH,Gust SpeedMPH,PrecipitationIn,Events,Conditions,WindDirDegrees,DateUTC
12:53 AM,59.0,53.1,81,29.86,10.0,SE,5.8,-,N/A,,Clear,140,2012-08-15 05:53:00
1:53 AM,59.0,52.0,78,29.85,10.0,SE,4.6,-,N/A,,Clear,130,2012-08-15 06:53:00
2:53 AM,57.0,51.1,81,29.83,10.0,SE,6.9,-,N/A,,Clear,130,2012-08-15 07:53:00
3:53 AM,57.9,50.0,75,29.83,10.0,ESE,5.8,-,N/A,,Clear,120,2012-08-15 08:53:00
4:53 AM,57.9,50.0,75,29.81,10.0,SE,5.8,-,N/A,,Partly Cloudy,130,2012-08-15 09:53:00
5:53 AM,57.9,50.0,75,29.79,10.0,SE,9.2,-,N/A,,Clear,130,2012-08-15 10:53:00
6:53 AM,57.9,51.1,78,29.78,10.0,SE,9.2,-,N/A,,Clear,130,2012-08-15 11:53:00
7:53 AM,61.0,52.0,72,29.76,10.0,SE,10.4,-,N/A,,Clear,140,2012-08-15 12:53:00
8:53 AM,66.0,55.0,68,29.75,10.0,SSE,11.5,-,N/A,,Clear,160,2012-08-15 13:53:00
9:53 AM,69.1,57.0,65,29.73,10.0,SSE,12.7,-,N/A,,Clear,160,2012-08-15 14:53:00
10:53 AM,72.0,60.1,66,29.73,10.0,SSE,11.5,-,N/A,,Clear,160,2012-08-15 15:53:00
11:53 AM,75.0,61.0,62,29.72,10.0,South,10.4,-,N/A,,Clear,170,2012-08-15 16:53:00
12:53 PM,78.1,62.1,58,29.70,10.0,SSW,10.4,-,N/A,,Clear,200,2012-08-15 17:53:00
1:53 PM,79.0,63.0,58,29.69,10.0,South,13.8,19.6,N/A,,Mostly Cloudy,180,2012-08-15 18:53:00
2:05 PM,78.8,64.4,61,29.70,10.0,South,12.7,-,N/A,,Overcast,190,2012-08-15 19:05:00
2:53 PM,78.1,63.0,60,29.69,10.0,South,13.8,-,N/A,,Mostly Cloudy,180,2012-08-15 19:53:00
3:53 PM,77.0,64.0,64,29.68,10.0,South,11.5,-,N/A,,Mostly Cloudy,190,2012-08-15 20:53:00
4:53 PM,75.0,64.0,69,29.66,10.0,South,12.7,-,N/A,,Clear,190,2012-08-15 21:53:00
5:42 PM,71.6,66.2,83,29.69,2.5,South,9.2,-,0.06,Rain,Heavy Rain,190,2012-08-15 22:42:00
5:45 PM,71.6,66.2,83,29.70,1.2,SW,8.1,-,0.15,Rain,Heavy Rain,220,2012-08-15 22:45:00
5:50 PM,69.8,66.2,88,29.71,0.5,WNW,23.0,28.8,0.31,Fog-Rain,Heavy Rain,290,2012-08-15 22:50:00
5:53 PM,66.9,64.0,90,29.72,0.2,WNW,17.3,28.8,0.50,Fog-Rain,Heavy Rain,300,2012-08-15 22:53:00
6:01 PM,66.2,64.4,94,29.73,0.8,West,11.5,-,0.02,Rain,Light Rain,270,2012-08-15 23:01:00
6:03 PM,66.2,64.4,94,29.72,1.8,WNW,9.2,-,0.02,Rain,Light Rain,290,2012-08-15 23:03:00
6:10 PM,66.2,64.4,94,29.71,10.0,WNW,9.2,-,0.02,Rain,Light Rain,290,2012-08-15 23:10:00
6:53 PM,68.0,63.0,84,29.71,10.0,WNW,8.1,-,0.02,,Mostly Cloudy,300,2012-08-15 23:53:00
7:31 PM,66.2,62.6,88,29.74,10.0,WNW,10.4,-,N/A,,Mostly Cloudy,290,2012-08-16 00:31:00
7:45 PM,66.2,60.8,83,29.75,10.0,WNW,10.4,-,N/A,,Mostly Cloudy,290,2012-08-16 00:45:00
7:53 PM,66.0,61.0,84,29.74,10.0,WNW,6.9,-,N/A,,Overcast,300,2012-08-16 00:53:00
8:53 PM,64.0,60.1,87,29.75,10.0,WNW,13.8,-,0.00,,Mostly Cloudy,290,2012-08-16 01:53:00
9:14 PM,64.4,60.8,88,29.77,10.0,West,10.4,-,N/A,,Mostly Cloudy,280,2012-08-16 02:14:00
9:53 PM,62.1,57.0,84,29.79,10.0,NW,17.3,25.3,0.00,,Overcast,320,2012-08-16 02:53:00
10:18 PM,60.8,57.2,88,29.80,9.0,NNW,11.5,-,0.00,Rain,Light Rain,330,2012-08-16 03:18:00
10:27 PM,60.8,57.2,88,29.80,4.0,NW,13.8,-,0.01,Rain,Light Rain,310,2012-08-16 03:27:00
10:53 PM,59.0,55.9,90,29.81,10.0,NW,13.8,-,0.01,,Overcast,310,2012-08-16 03:53:00
11:11 PM,59.0,55.4,88,29.82,10.0,NW,12.7,27.6,N/A,,Overcast,320,2012-08-16 04:11:00
11:19 PM,59.0,55.4,88,29.82,10.0,NW,12.7,-,N/A,,Overcast,320,2012-08-16 04:19:00
11:53 PM,57.9,54.0,87,29.82,10.0,WNW,16.1,-,0.00,,Overcast,300,2012-08-16 04:53:00